Hauptseite
METAR-TAF:

METAR-TAF

Flughäfen :

Daressalam, Tansania

Flughafen Dar es Salaam

Breite: 06-52S, Länge: 039-12E, Höhe: 55 m

Beobachtung

Neuester Wetterbericht von vor 49 Minuten, um 23:00 UTC
Windstille
Temperatur 22°C
Luftfeuchtigkeit 94%
Luftdruck 1014 hPa
Sichtweite 10 km oder mehr
Leicht bewölkt in der Höhe von 1100 ft

METAR: HTDA 162300Z 00000KT 9999 FEW011 22/21 Q1014 NOSIG

Zeit: 02:49 (23:49 UTC)

Prognose

Neuester Wetterbericht von vor 49 Minuten, um 23:00 UTC
Gültige Prognose vom 17 um 00 UTC bis 18 um 06 UTC
Wind kt aus Nord
Sichtweite 10 km oder mehr
Leicht bewölkt in der Höhe von 2100 ft
Übergehend zu
vom 17 um 06 UTC bis 17 um 09 UTC
Wind 10 kt aus Südost
Durchbrochene Bewölkung in der Höhe von 1800 ft
Übergehend zu
vom 17 um 13 UTC bis 17 um 16 UTC
Wind 15 kt aus Südost

TAF: HTDA 162300Z 1700/1806 00000KT 9999 FEW021 BECMG 1706/1709 13010KT BKN018 BECMG 1713/1716 14015KT

Wetterbeobachtungen und Prognosen von mehr als 4000 Flughäfen (METAR und TAF Bericht).

Die verfügbaren Stationen werden durch gelbe und rote Markierungen auf der Karte dargestellt.

Führen Sie die Maus auf sie, um den Namen der Station zu sehen.

Darauf klicken, um die Beobachtung von Wetterbeobachtungen und Prognosen zu sehen.

Um die Karte zu ändern : klicken Sie auf den grünen Tasten mit einem schwarzen Kreuz Zum Vergrößern, auf den grünen Button mit einem Gedankenstrich zu verkleinern, oder auf die grünen Pfeile für benachbarte Karten.


METAR-TAF: